SBUL/UDI METAR and TAF weather

Enter ICAO airport designator
Station Type Date Time Source
SBUL METAR 2019/02/21 12:00 UTC NOAA

SBUL 211200Z 07004KT 8000 SCT003 SCT010 OVC100 20/19 Q1019


Station Type Date Time Source
SBUL Decoded METAR 2019/02/21 12:00 UTC NOAA

Uberlandia , Brazil (SBUL) 18-53S 048-14W
Feb 21, 2019 - 07:00 AM EST / 2019.02.21 1200 UTC
Wind: from the ENE (070 degrees) at 5 MPH (4 KT):0
Visibility: 4 mile(s):0
Sky conditions: overcast
Temperature: 68 F (20 C)
Dew Point: 66 F (19 C)
Relative Humidity: 93%
Pressure (altimeter): 30.09 in. Hg (1019 hPa)
ob: SBUL 211200Z 07004KT 8000 SCT003 SCT010 OVC100 20/19 Q1019
cycle: 12

Station Type Date Time Source
SBUL TAF 2019/02/21 12:30 UTC NOAA

TAF SBUL 211015Z 2112/2124 01005KT 8000 RA FEW005TX28/2117Z TN22/2124Z
BECMG 2113/2115 35010KT 9999 NSW SCT030 PROB40 2116/2123 15008KT TSRA BKN030 FEW045CB
RMK PGN


Example: see airport list